HKE131 RCKH-VHHH
Flight info
| Callsign | HKE131 |
|---|---|
| Flight time | 1h 9m |
| Altitude | 34000 |
| Route | PARAS2A PARAS T7 WP521 G581 ELATO V522 ABBEY |
| Aircraft | A321/M-SDE3FGHIRWY/LB1 |
Departure
| Time | 2026-04-26 02:30 |
|---|---|
| Airport | Kaohsiung International Airport (RCKH) |
Arrival
| Time | 2026-04-26 03:40 |
|---|---|
| Airport | Hong Kong International Airport (VHHH) |
| Time | Latitude | Longitude | Altitude | Speed | Heading |
|---|---|---|---|---|---|
| 2026-04-26 01:21 | 22.57264 | 120.34227 | 33 ft | 0 kts | 272° |
| 2026-04-26 02:21 | 22.57264 | 120.34243 | 33 ft | 2 kts | 276° |
| 2026-04-26 02:22 | 22.57262 | 120.34261 | 32 ft | 2 kts | 278° |
| 2026-04-26 02:22 | 22.57259 | 120.34278 | 33 ft | 2 kts | 283° |
| 2026-04-26 02:22 | 22.57255 | 120.34296 | 33 ft | 2 kts | 291° |
| 2026-04-26 02:22 | 22.57248 | 120.34312 | 32 ft | 2 kts | 307° |
| 2026-04-26 02:23 | 22.57236 | 120.34324 | 33 ft | 2 kts | 338° |
| 2026-04-26 02:23 | 22.57221 | 120.34329 | 33 ft | 1 kts | 0° |
| 2026-04-26 02:23 | 22.57217 | 120.34329 | 33 ft | 0 kts | 2° |
| 2026-04-26 02:25 | 22.57231 | 120.34329 | 33 ft | 5 kts | 2° |
| 2026-04-26 02:25 | 22.57271 | 120.34330 | 33 ft | 8 kts | 360° |
| 2026-04-26 02:25 | 22.57343 | 120.34329 | 33 ft | 11 kts | 360° |
| 2026-04-26 02:26 | 22.57403 | 120.34295 | 31 ft | 11 kts | 288° |
| 2026-04-26 02:26 | 22.57408 | 120.34208 | 33 ft | 12 kts | 271° |
| 2026-04-26 02:26 | 22.57410 | 120.34115 | 32 ft | 13 kts | 271° |
| 2026-04-26 02:26 | 22.57412 | 120.34013 | 32 ft | 14 kts | 271° |
| 2026-04-26 02:27 | 22.57416 | 120.33905 | 31 ft | 15 kts | 273° |
| 2026-04-26 02:27 | 22.57420 | 120.33791 | 31 ft | 16 kts | 272° |
| 2026-04-26 02:27 | 22.57443 | 120.33678 | 30 ft | 15 kts | 308° |
| 2026-04-26 02:27 | 22.57522 | 120.33596 | 30 ft | 16 kts | 317° |
| 2026-04-26 02:28 | 22.57604 | 120.33518 | 29 ft | 12 kts | 328° |
| 2026-04-26 02:28 | 22.57648 | 120.33508 | 29 ft | 1 kts | 358° |
| 2026-04-26 02:28 | 22.57649 | 120.33508 | 29 ft | 0 kts | 358° |
| 2026-04-26 02:29 | 22.57652 | 120.33508 | 29 ft | 2 kts | 358° |
| 2026-04-26 02:29 | 22.57696 | 120.33509 | 29 ft | 8 kts | 4° |
| 2026-04-26 02:29 | 22.57744 | 120.33543 | 29 ft | 9 kts | 64° |
| 2026-04-26 02:29 | 22.57748 | 120.33622 | 29 ft | 28 kts | 92° |
| 2026-04-26 02:30 | 22.57726 | 120.34372 | 34 ft | 117 kts | 92° |
| 2026-04-26 02:30 | 22.57694 | 120.35452 | 39 ft | 168 kts | 92° |
| 2026-04-26 02:30 | 22.57673 | 120.36332 | 205 ft | 181 kts | 90° |
| 2026-04-26 02:30 | 22.57648 | 120.37687 | 898 ft | 180 kts | 90° |
| 2026-04-26 02:31 | 22.57309 | 120.38999 | 1567 ft | 185 kts | 127° |
| 2026-04-26 02:31 | 22.56206 | 120.39762 | 2062 ft | 202 kts | 166° |
| 2026-04-26 02:31 | 22.54754 | 120.39638 | 2342 ft | 224 kts | 204° |
| 2026-04-26 02:31 | 22.53472 | 120.38611 | 2681 ft | 233 kts | 223° |
| 2026-04-26 02:32 | 22.52284 | 120.37413 | 3353 ft | 232 kts | 224° |
| 2026-04-26 02:32 | 22.51084 | 120.36180 | 3781 ft | 249 kts | 224° |
| 2026-04-26 02:32 | 22.49774 | 120.34837 | 4135 ft | 267 kts | 224° |
| 2026-04-26 02:32 | 22.48402 | 120.33438 | 4734 ft | 273 kts | 224° |
| 2026-04-26 02:33 | 22.47013 | 120.32032 | 5422 ft | 275 kts | 224° |
| 2026-04-26 02:33 | 22.45610 | 120.30619 | 6130 ft | 276 kts | 225° |
| 2026-04-26 02:33 | 22.44197 | 120.29202 | 6813 ft | 278 kts | 225° |
| 2026-04-26 02:33 | 22.42768 | 120.27775 | 7472 ft | 281 kts | 224° |
| 2026-04-26 02:34 | 22.41328 | 120.26342 | 8109 ft | 283 kts | 224° |
| 2026-04-26 02:34 | 22.39875 | 120.24895 | 8729 ft | 285 kts | 224° |
| 2026-04-26 02:34 | 22.38409 | 120.23436 | 9330 ft | 288 kts | 224° |
| 2026-04-26 02:34 | 22.36927 | 120.21963 | 9925 ft | 290 kts | 224° |
| 2026-04-26 02:35 | 22.35441 | 120.20484 | 10535 ft | 292 kts | 224° |
| 2026-04-26 02:35 | 22.33975 | 120.19027 | 11461 ft | 276 kts | 225° |
| 2026-04-26 02:35 | 22.32573 | 120.17616 | 12008 ft | 282 kts | 229° |
| 2026-04-26 02:35 | 22.31507 | 120.15800 | 12149 ft | 295 kts | 252° |
| 2026-04-26 02:36 | 22.30905 | 120.13625 | 12300 ft | 311 kts | 255° |
| 2026-04-26 02:36 | 22.30313 | 120.11319 | 12451 ft | 327 kts | 256° |
| 2026-04-26 02:36 | 22.29702 | 120.08891 | 12577 ft | 343 kts | 256° |
| 2026-04-26 02:36 | 22.29071 | 120.06368 | 12906 ft | 351 kts | 256° |
| 2026-04-26 02:37 | 22.28428 | 120.03807 | 13405 ft | 354 kts | 256° |
| 2026-04-26 02:37 | 22.27781 | 120.01232 | 13951 ft | 356 kts | 256° |
| 2026-04-26 02:37 | 22.27128 | 119.98646 | 14518 ft | 358 kts | 256° |
| 2026-04-26 02:37 | 22.26471 | 119.96052 | 15065 ft | 359 kts | 256° |
| 2026-04-26 02:38 | 22.25798 | 119.93411 | 15646 ft | 360 kts | 256° |
| 2026-04-26 02:38 | 22.25131 | 119.90800 | 16203 ft | 361 kts | 256° |
| 2026-04-26 02:38 | 22.24461 | 119.88181 | 16744 ft | 363 kts | 256° |
| 2026-04-26 02:38 | 22.23786 | 119.85547 | 17281 ft | 364 kts | 256° |
| 2026-04-26 02:39 | 22.23109 | 119.82908 | 17802 ft | 366 kts | 256° |
| 2026-04-26 02:39 | 22.22431 | 119.80255 | 18292 ft | 367 kts | 257° |
| 2026-04-26 02:39 | 22.21754 | 119.77593 | 18784 ft | 370 kts | 256° |
| 2026-04-26 02:39 | 22.21069 | 119.74908 | 19263 ft | 372 kts | 257° |
| 2026-04-26 02:40 | 22.20400 | 119.72206 | 19724 ft | 374 kts | 258° |
| 2026-04-26 02:40 | 22.19787 | 119.69477 | 20190 ft | 376 kts | 259° |
| 2026-04-26 02:40 | 22.19203 | 119.66721 | 20633 ft | 378 kts | 259° |
| 2026-04-26 02:40 | 22.18628 | 119.63949 | 21050 ft | 380 kts | 259° |
| 2026-04-26 02:41 | 22.18048 | 119.61161 | 21462 ft | 382 kts | 259° |
| 2026-04-26 02:41 | 22.17455 | 119.58368 | 21844 ft | 383 kts | 259° |
| 2026-04-26 02:41 | 22.16851 | 119.55559 | 22212 ft | 385 kts | 259° |
| 2026-04-26 02:41 | 22.16273 | 119.52726 | 22572 ft | 387 kts | 263° |
| 2026-04-26 02:42 | 22.16064 | 119.49842 | 22920 ft | 387 kts | 270° |
| 2026-04-26 02:42 | 22.15990 | 119.46933 | 23271 ft | 389 kts | 270° |
| 2026-04-26 02:42 | 22.15914 | 119.44014 | 23618 ft | 391 kts | 270° |
| 2026-04-26 02:42 | 22.15838 | 119.41081 | 23960 ft | 392 kts | 270° |
| 2026-04-26 02:43 | 22.15685 | 119.35170 | 24616 ft | 396 kts | 270° |
| 2026-04-26 02:43 | 22.15603 | 119.32190 | 24945 ft | 398 kts | 270° |
| 2026-04-26 02:43 | 22.15518 | 119.29209 | 25271 ft | 399 kts | 269° |
| 2026-04-26 02:44 | 22.15432 | 119.26209 | 25579 ft | 401 kts | 270° |
| 2026-04-26 02:44 | 22.15344 | 119.23198 | 25886 ft | 403 kts | 269° |
| 2026-04-26 02:44 | 22.15257 | 119.20172 | 26197 ft | 404 kts | 269° |
| 2026-04-26 02:44 | 22.15173 | 119.17140 | 26515 ft | 406 kts | 269° |
| 2026-04-26 02:45 | 22.15093 | 119.14092 | 26832 ft | 407 kts | 270° |
| 2026-04-26 02:45 | 22.15011 | 119.11036 | 27117 ft | 408 kts | 269° |
| 2026-04-26 02:45 | 22.15070 | 119.07937 | 27412 ft | 409 kts | 277° |
| 2026-04-26 02:45 | 22.15427 | 119.04928 | 27682 ft | 410 kts | 278° |
| 2026-04-26 02:46 | 22.15802 | 119.01833 | 27963 ft | 411 kts | 277° |
| 2026-04-26 02:46 | 22.16173 | 118.98771 | 28247 ft | 413 kts | 277° |
| 2026-04-26 02:46 | 22.16546 | 118.95694 | 28533 ft | 414 kts | 277° |
| 2026-04-26 02:46 | 22.16916 | 118.92611 | 28804 ft | 415 kts | 277° |
| 2026-04-26 02:47 | 22.17287 | 118.89520 | 29085 ft | 416 kts | 277° |
| 2026-04-26 02:47 | 22.17658 | 118.86418 | 29350 ft | 417 kts | 277° |
| 2026-04-26 02:47 | 22.18031 | 118.83316 | 29684 ft | 416 kts | 277° |
| 2026-04-26 02:47 | 22.18402 | 118.80225 | 30068 ft | 414 kts | 277° |
| 2026-04-26 02:48 | 22.18770 | 118.77154 | 30441 ft | 412 kts | 277° |
| 2026-04-26 02:48 | 22.19133 | 118.74083 | 30774 ft | 412 kts | 277° |
| 2026-04-26 02:48 | 22.19489 | 118.71023 | 31086 ft | 411 kts | 277° |
| 2026-04-26 02:48 | 22.19842 | 118.67964 | 31398 ft | 411 kts | 277° |
| 2026-04-26 02:49 | 22.20199 | 118.64913 | 31704 ft | 410 kts | 277° |
| 2026-04-26 02:49 | 22.20561 | 118.61863 | 32005 ft | 409 kts | 278° |
| 2026-04-26 02:49 | 22.20920 | 118.58821 | 32320 ft | 408 kts | 277° |
| 2026-04-26 02:49 | 22.21278 | 118.55790 | 32616 ft | 407 kts | 278° |
| 2026-04-26 02:50 | 22.21633 | 118.52770 | 32915 ft | 405 kts | 278° |
| 2026-04-26 02:50 | 22.21986 | 118.49758 | 33195 ft | 404 kts | 278° |
| 2026-04-26 02:50 | 22.22338 | 118.46747 | 33459 ft | 404 kts | 278° |
| 2026-04-26 02:50 | 22.22691 | 118.43743 | 33718 ft | 403 kts | 278° |
| 2026-04-26 02:51 | 22.23041 | 118.40741 | 33961 ft | 403 kts | 278° |
| 2026-04-26 02:51 | 22.23391 | 118.37736 | 34050 ft | 403 kts | 278° |
| 2026-04-26 02:51 | 22.24084 | 118.31759 | 34063 ft | 401 kts | 278° |
| 2026-04-26 02:52 | 22.24773 | 118.25799 | 34063 ft | 399 kts | 278° |
| 2026-04-26 02:52 | 22.25462 | 118.19851 | 34063 ft | 399 kts | 278° |
| 2026-04-26 02:53 | 22.26149 | 118.13865 | 34064 ft | 399 kts | 278° |
| 2026-04-26 02:53 | 22.26819 | 118.07910 | 34067 ft | 400 kts | 278° |
| 2026-04-26 02:54 | 22.27469 | 118.01945 | 34072 ft | 400 kts | 278° |
| 2026-04-26 02:54 | 22.28125 | 117.95982 | 34072 ft | 400 kts | 278° |
| 2026-04-26 02:55 | 22.28810 | 117.90017 | 34070 ft | 400 kts | 279° |
| 2026-04-26 02:55 | 22.29495 | 117.84049 | 34076 ft | 401 kts | 279° |
| 2026-04-26 02:56 | 22.30177 | 117.78080 | 34077 ft | 401 kts | 278° |
| 2026-04-26 02:56 | 22.30849 | 117.72105 | 34082 ft | 401 kts | 278° |
| 2026-04-26 02:57 | 22.31524 | 117.66117 | 34084 ft | 401 kts | 279° |
| 2026-04-26 02:57 | 22.32202 | 117.60131 | 34086 ft | 402 kts | 279° |
| 2026-04-26 02:58 | 22.32872 | 117.54143 | 34094 ft | 401 kts | 279° |
| 2026-04-26 02:58 | 22.33305 | 117.48124 | 34090 ft | 404 kts | 272° |
| 2026-04-26 02:59 | 22.33185 | 117.42054 | 34093 ft | 405 kts | 272° |
| 2026-04-26 02:59 | 22.33073 | 117.35974 | 34086 ft | 405 kts | 272° |
| 2026-04-26 03:00 | 22.32964 | 117.29849 | 34091 ft | 405 kts | 272° |
| 2026-04-26 03:00 | 22.32858 | 117.23755 | 34091 ft | 406 kts | 272° |
| 2026-04-26 03:01 | 22.32743 | 117.17647 | 34093 ft | 407 kts | 272° |
| 2026-04-26 03:01 | 22.32623 | 117.11534 | 34096 ft | 407 kts | 272° |
| 2026-04-26 03:02 | 22.32498 | 117.05409 | 34093 ft | 408 kts | 272° |
| 2026-04-26 03:02 | 22.32394 | 117.00312 | 34088 ft | 409 kts | 272° |
| 2026-04-26 03:03 | 22.32271 | 116.94171 | 34092 ft | 409 kts | 272° |
| 2026-04-26 03:03 | 22.32146 | 116.88024 | 34096 ft | 410 kts | 273° |
| 2026-04-26 03:04 | 22.32016 | 116.81867 | 34090 ft | 410 kts | 273° |
| 2026-04-26 03:04 | 22.31885 | 116.75698 | 34093 ft | 411 kts | 272° |
| 2026-04-26 03:05 | 22.31751 | 116.69527 | 34090 ft | 412 kts | 272° |
| 2026-04-26 03:05 | 22.31611 | 116.63302 | 34092 ft | 412 kts | 272° |
| 2026-04-26 03:06 | 22.31477 | 116.57114 | 34089 ft | 412 kts | 273° |
| 2026-04-26 03:06 | 22.31335 | 116.50911 | 34089 ft | 414 kts | 272° |
| 2026-04-26 03:07 | 22.31185 | 116.44702 | 34088 ft | 414 kts | 272° |
| 2026-04-26 03:07 | 22.31038 | 116.38484 | 34084 ft | 414 kts | 272° |
| 2026-04-26 03:08 | 22.30897 | 116.32264 | 34087 ft | 414 kts | 273° |
| 2026-04-26 03:08 | 22.30747 | 116.26045 | 34085 ft | 415 kts | 272° |
| 2026-04-26 03:09 | 22.30593 | 116.19822 | 34087 ft | 415 kts | 273° |
| 2026-04-26 03:09 | 22.30441 | 116.13584 | 34069 ft | 416 kts | 271° |
| 2026-04-26 03:10 | 22.30358 | 116.10452 | 33509 ft | 421 kts | 271° |
| 2026-04-26 03:10 | 22.30274 | 116.07268 | 32637 ft | 427 kts | 271° |
| 2026-04-26 03:10 | 22.30190 | 116.04038 | 31733 ft | 433 kts | 271° |
| 2026-04-26 03:10 | 22.30108 | 116.00797 | 31231 ft | 430 kts | 271° |
| 2026-04-26 03:11 | 22.30024 | 115.97586 | 30732 ft | 426 kts | 271° |
| 2026-04-26 03:11 | 22.29941 | 115.94400 | 30234 ft | 422 kts | 271° |
| 2026-04-26 03:11 | 22.29854 | 115.91240 | 29738 ft | 419 kts | 271° |
| 2026-04-26 03:11 | 22.29769 | 115.88119 | 29243 ft | 415 kts | 271° |
| 2026-04-26 03:12 | 22.29684 | 115.85018 | 28741 ft | 411 kts | 271° |
| 2026-04-26 03:12 | 22.29601 | 115.81948 | 28221 ft | 408 kts | 271° |
| 2026-04-26 03:12 | 22.29520 | 115.78901 | 27711 ft | 404 kts | 271° |
| 2026-04-26 03:12 | 22.29438 | 115.75877 | 27206 ft | 401 kts | 271° |
| 2026-04-26 03:13 | 22.29354 | 115.72878 | 26707 ft | 398 kts | 271° |
| 2026-04-26 03:13 | 22.29271 | 115.69898 | 26221 ft | 395 kts | 271° |
| 2026-04-26 03:13 | 22.29191 | 115.66948 | 25741 ft | 392 kts | 271° |
| 2026-04-26 03:13 | 22.29115 | 115.64020 | 25277 ft | 388 kts | 270° |
| 2026-04-26 03:14 | 22.29036 | 115.61079 | 24811 ft | 386 kts | 270° |
| 2026-04-26 03:14 | 22.28957 | 115.58196 | 24369 ft | 383 kts | 270° |
| 2026-04-26 03:14 | 22.28879 | 115.55335 | 23928 ft | 380 kts | 270° |
| 2026-04-26 03:14 | 22.28804 | 115.52494 | 23508 ft | 377 kts | 270° |
| 2026-04-26 03:15 | 22.28727 | 115.49673 | 23087 ft | 374 kts | 270° |
| 2026-04-26 03:15 | 22.28648 | 115.46874 | 22666 ft | 371 kts | 270° |
| 2026-04-26 03:15 | 22.28571 | 115.44100 | 22240 ft | 368 kts | 270° |
| 2026-04-26 03:15 | 22.28491 | 115.41346 | 21814 ft | 365 kts | 270° |
| 2026-04-26 03:16 | 22.28412 | 115.38615 | 21382 ft | 363 kts | 270° |
| 2026-04-26 03:16 | 22.28334 | 115.35902 | 20953 ft | 360 kts | 269° |
| 2026-04-26 03:16 | 22.28256 | 115.33217 | 20513 ft | 357 kts | 269° |
| 2026-04-26 03:16 | 22.28179 | 115.30545 | 20075 ft | 355 kts | 269° |
| 2026-04-26 03:17 | 22.28103 | 115.27892 | 19632 ft | 353 kts | 269° |
| 2026-04-26 03:17 | 22.28025 | 115.25254 | 19185 ft | 351 kts | 269° |
| 2026-04-26 03:17 | 22.27942 | 115.22631 | 18739 ft | 349 kts | 269° |
| 2026-04-26 03:17 | 22.27857 | 115.20025 | 18289 ft | 347 kts | 269° |
| 2026-04-26 03:18 | 22.27774 | 115.17431 | 17847 ft | 345 kts | 269° |
| 2026-04-26 03:18 | 22.27692 | 115.14849 | 17403 ft | 343 kts | 269° |
| 2026-04-26 03:18 | 22.27613 | 115.12274 | 16955 ft | 342 kts | 269° |
| 2026-04-26 03:18 | 22.27533 | 115.09719 | 16518 ft | 340 kts | 269° |
| 2026-04-26 03:19 | 22.27453 | 115.07177 | 16078 ft | 338 kts | 269° |
| 2026-04-26 03:19 | 22.27372 | 115.04644 | 15642 ft | 336 kts | 269° |
| 2026-04-26 03:19 | 22.27290 | 115.02131 | 15207 ft | 335 kts | 269° |
| 2026-04-26 03:19 | 22.27209 | 114.99624 | 14774 ft | 333 kts | 269° |
| 2026-04-26 03:20 | 22.27122 | 114.97144 | 14399 ft | 329 kts | 266° |
| 2026-04-26 03:20 | 22.26616 | 114.94795 | 14340 ft | 317 kts | 248° |
| 2026-04-26 03:20 | 22.25614 | 114.92666 | 14273 ft | 320 kts | 244° |
| 2026-04-26 03:20 | 22.24572 | 114.90535 | 14203 ft | 322 kts | 244° |
| 2026-04-26 03:21 | 22.23523 | 114.88397 | 14129 ft | 322 kts | 244° |
| 2026-04-26 03:21 | 22.22459 | 114.86234 | 14064 ft | 322 kts | 244° |
| 2026-04-26 03:21 | 22.21422 | 114.84129 | 14002 ft | 322 kts | 244° |
| 2026-04-26 03:21 | 22.20361 | 114.81971 | 13924 ft | 321 kts | 244° |
| 2026-04-26 03:22 | 22.19315 | 114.79849 | 13868 ft | 321 kts | 244° |
| 2026-04-26 03:22 | 22.18263 | 114.77719 | 13804 ft | 321 kts | 244° |
| 2026-04-26 03:22 | 22.17215 | 114.75599 | 13739 ft | 320 kts | 244° |
| 2026-04-26 03:22 | 22.16166 | 114.73480 | 13664 ft | 320 kts | 244° |
| 2026-04-26 03:23 | 22.15120 | 114.71360 | 13595 ft | 320 kts | 244° |
| 2026-04-26 03:23 | 22.14074 | 114.69239 | 13528 ft | 320 kts | 244° |
| 2026-04-26 03:23 | 22.13028 | 114.67124 | 13449 ft | 319 kts | 244° |
| 2026-04-26 03:23 | 22.11980 | 114.65006 | 13026 ft | 324 kts | 244° |
| 2026-04-26 03:24 | 22.10899 | 114.62826 | 12297 ft | 333 kts | 244° |
| 2026-04-26 03:24 | 22.09805 | 114.60622 | 11789 ft | 333 kts | 244° |
| 2026-04-26 03:24 | 22.08713 | 114.58421 | 11326 ft | 332 kts | 244° |
| 2026-04-26 03:24 | 22.07628 | 114.56232 | 10893 ft | 330 kts | 244° |
| 2026-04-26 03:25 | 22.06552 | 114.54059 | 10471 ft | 327 kts | 243° |
| 2026-04-26 03:25 | 22.05481 | 114.51901 | 10049 ft | 325 kts | 243° |
| 2026-04-26 03:25 | 22.04428 | 114.49782 | 9846 ft | 315 kts | 243° |
| 2026-04-26 03:25 | 22.03411 | 114.47737 | 9715 ft | 304 kts | 243° |
| 2026-04-26 03:26 | 22.02688 | 114.45633 | 9232 ft | 303 kts | 261° |
| 2026-04-26 03:26 | 22.02458 | 114.43319 | 8472 ft | 317 kts | 268° |
| 2026-04-26 03:26 | 22.02571 | 114.40920 | 7740 ft | 324 kts | 276° |
| 2026-04-26 03:26 | 22.02810 | 114.38482 | 7004 ft | 331 kts | 276° |
| 2026-04-26 03:27 | 22.03066 | 114.35998 | 6319 ft | 335 kts | 276° |
| 2026-04-26 03:27 | 22.03321 | 114.33530 | 6067 ft | 325 kts | 276° |
| 2026-04-26 03:27 | 22.03566 | 114.31160 | 5990 ft | 311 kts | 276° |
| 2026-04-26 03:27 | 22.03806 | 114.28847 | 6005 ft | 310 kts | 276° |
| 2026-04-26 03:28 | 22.04052 | 114.26486 | 6026 ft | 330 kts | 276° |
| 2026-04-26 03:28 | 22.04313 | 114.23982 | 6015 ft | 340 kts | 276° |
| 2026-04-26 03:28 | 22.04577 | 114.21445 | 6010 ft | 342 kts | 276° |
| 2026-04-26 03:28 | 22.04861 | 114.18898 | 6007 ft | 343 kts | 277° |
| 2026-04-26 03:29 | 22.05202 | 114.16322 | 6021 ft | 343 kts | 278° |
| 2026-04-26 03:29 | 22.05568 | 114.13785 | 6010 ft | 343 kts | 279° |
| 2026-04-26 03:29 | 22.05946 | 114.11252 | 6006 ft | 343 kts | 279° |
| 2026-04-26 03:29 | 22.06322 | 114.08716 | 6004 ft | 343 kts | 279° |
| 2026-04-26 03:30 | 22.06691 | 114.06178 | 6020 ft | 343 kts | 279° |
| 2026-04-26 03:30 | 22.07054 | 114.03656 | 5655 ft | 339 kts | 278° |
| 2026-04-26 03:30 | 22.07411 | 114.01152 | 5117 ft | 337 kts | 278° |
| 2026-04-26 03:30 | 22.07763 | 113.98666 | 4576 ft | 334 kts | 279° |
| 2026-04-26 03:31 | 22.08107 | 113.96215 | 4130 ft | 330 kts | 279° |
| 2026-04-26 03:31 | 22.08449 | 113.93749 | 3982 ft | 332 kts | 279° |
| 2026-04-26 03:31 | 22.08793 | 113.91274 | 4007 ft | 335 kts | 279° |
| 2026-04-26 03:31 | 22.09142 | 113.88779 | 4001 ft | 337 kts | 279° |
| 2026-04-26 03:32 | 22.09491 | 113.86279 | 4022 ft | 338 kts | 279° |
| 2026-04-26 03:32 | 22.09830 | 113.83838 | 4008 ft | 320 kts | 278° |
| 2026-04-26 03:32 | 22.10152 | 113.81535 | 4002 ft | 302 kts | 279° |
| 2026-04-26 03:32 | 22.10645 | 113.79414 | 3993 ft | 284 kts | 294° |
| 2026-04-26 03:33 | 22.11671 | 113.77657 | 3898 ft | 272 kts | 313° |
| 2026-04-26 03:33 | 22.13092 | 113.76408 | 3824 ft | 255 kts | 331° |
| 2026-04-26 03:33 | 22.14634 | 113.75606 | 3681 ft | 236 kts | 337° |
| 2026-04-26 03:33 | 22.16083 | 113.74883 | 3282 ft | 226 kts | 336° |
| 2026-04-26 03:34 | 22.17498 | 113.74179 | 2830 ft | 221 kts | 338° |
| 2026-04-26 03:34 | 22.18814 | 113.73525 | 2721 ft | 197 kts | 337° |
| 2026-04-26 03:34 | 22.20033 | 113.72916 | 2415 ft | 191 kts | 337° |
| 2026-04-26 03:34 | 22.21222 | 113.72323 | 2063 ft | 185 kts | 337° |
| 2026-04-26 03:35 | 22.22412 | 113.71812 | 1999 ft | 185 kts | 350° |
| 2026-04-26 03:35 | 22.23662 | 113.71844 | 1779 ft | 178 kts | 16° |
| 2026-04-26 03:35 | 22.24733 | 113.72487 | 1516 ft | 179 kts | 41° |
| 2026-04-26 03:35 | 22.25688 | 113.73391 | 1512 ft | 188 kts | 40° |
| 2026-04-26 03:36 | 22.26694 | 113.74319 | 1510 ft | 188 kts | 40° |
| 2026-04-26 03:36 | 22.27341 | 113.74916 | 1521 ft | 178 kts | 40° |
| 2026-04-26 03:36 | 22.28131 | 113.75905 | 1502 ft | 173 kts | 61° |
| 2026-04-26 03:36 | 22.28565 | 113.77104 | 1511 ft | 172 kts | 71° |
| 2026-04-26 03:37 | 22.28958 | 113.78317 | 1507 ft | 170 kts | 71° |
| 2026-04-26 03:37 | 22.29348 | 113.79524 | 1507 ft | 170 kts | 71° |
| 2026-04-26 03:37 | 22.29738 | 113.80731 | 1426 ft | 170 kts | 71° |
| 2026-04-26 03:37 | 22.30112 | 113.81886 | 1260 ft | 158 kts | 70° |
| 2026-04-26 03:38 | 22.30468 | 113.82991 | 1061 ft | 154 kts | 70° |
| 2026-04-26 03:38 | 22.30819 | 113.84078 | 855 ft | 152 kts | 70° |
| 2026-04-26 03:38 | 22.31166 | 113.85154 | 660 ft | 151 kts | 70° |
| 2026-04-26 03:38 | 22.31512 | 113.86224 | 462 ft | 151 kts | 71° |
| 2026-04-26 03:39 | 22.31856 | 113.87292 | 262 ft | 151 kts | 70° |
| 2026-04-26 03:39 | 22.32201 | 113.88359 | 80 ft | 151 kts | 69° |
| 2026-04-26 03:39 | 22.32519 | 113.89331 | 36 ft | 121 kts | 70° |
| 2026-04-26 03:39 | 22.32741 | 113.90017 | 34 ft | 72 kts | 70° |
| 2026-04-26 03:40 | 22.32826 | 113.90389 | 36 ft | 36 kts | 99° |
| 2026-04-26 03:40 | 22.32787 | 113.90592 | 37 ft | 17 kts | 94° |
| 2026-04-26 03:40 | 22.32785 | 113.90716 | 38 ft | 17 kts | 76° |
| 2026-04-26 03:40 | 22.32823 | 113.90838 | 38 ft | 17 kts | 71° |
| 2026-04-26 03:41 | 22.32865 | 113.90965 | 38 ft | 18 kts | 70° |
| 2026-04-26 03:41 | 22.32907 | 113.91093 | 38 ft | 19 kts | 70° |
| 2026-04-26 03:41 | 22.32951 | 113.91230 | 38 ft | 19 kts | 72° |
| 2026-04-26 03:41 | 22.32996 | 113.91371 | 38 ft | 20 kts | 71° |
| 2026-04-26 03:42 | 22.33043 | 113.91515 | 36 ft | 21 kts | 71° |
| 2026-04-26 03:42 | 22.33091 | 113.91665 | 38 ft | 22 kts | 71° |
| 2026-04-26 03:42 | 22.33140 | 113.91821 | 37 ft | 22 kts | 70° |
| 2026-04-26 03:42 | 22.33193 | 113.91980 | 37 ft | 22 kts | 70° |
| 2026-04-26 03:43 | 22.33200 | 113.92101 | 34 ft | 15 kts | 130° |
| 2026-04-26 03:43 | 22.33100 | 113.92146 | 37 ft | 16 kts | 161° |
| 2026-04-26 03:43 | 22.32991 | 113.92187 | 36 ft | 17 kts | 161° |
| 2026-04-26 03:43 | 22.32877 | 113.92230 | 37 ft | 18 kts | 161° |
| 2026-04-26 03:44 | 22.32746 | 113.92279 | 36 ft | 22 kts | 161° |
| 2026-04-26 03:44 | 22.32601 | 113.92333 | 37 ft | 22 kts | 161° |
| 2026-04-26 03:44 | 22.32452 | 113.92389 | 37 ft | 23 kts | 160° |
| 2026-04-26 03:44 | 22.32301 | 113.92446 | 37 ft | 21 kts | 161° |
| 2026-04-26 03:45 | 22.32247 | 113.92521 | 37 ft | 13 kts | 84° |
| 2026-04-26 03:45 | 22.32271 | 113.92592 | 37 ft | 9 kts | 70° |
| 2026-04-26 03:45 | 22.32257 | 113.92654 | 35 ft | 10 kts | 138° |
| 2026-04-26 03:45 | 22.32177 | 113.92686 | 37 ft | 15 kts | 162° |
| 2026-04-26 03:46 | 22.32071 | 113.92727 | 36 ft | 17 kts | 160° |
| 2026-04-26 03:46 | 22.31962 | 113.92768 | 36 ft | 14 kts | 161° |
| 2026-04-26 03:46 | 22.31873 | 113.92768 | 37 ft | 13 kts | 226° |
| 2026-04-26 03:47 | 22.31780 | 113.92489 | 35 ft | 28 kts | 250° |
| 2026-04-26 03:47 | 22.31715 | 113.92287 | 36 ft | 29 kts | 251° |
| 2026-04-26 03:47 | 22.31650 | 113.92083 | 36 ft | 29 kts | 251° |
| 2026-04-26 03:47 | 22.31583 | 113.91879 | 35 ft | 29 kts | 250° |
| 2026-04-26 03:48 | 22.31517 | 113.91673 | 37 ft | 29 kts | 251° |
| 2026-04-26 03:48 | 22.31465 | 113.91509 | 38 ft | 18 kts | 251° |
| 2026-04-26 03:48 | 22.31406 | 113.91428 | 37 ft | 13 kts | 184° |
| 2026-04-26 03:48 | 22.31314 | 113.91455 | 37 ft | 15 kts | 161° |
| 2026-04-26 03:49 | 22.31214 | 113.91492 | 37 ft | 16 kts | 161° |
| 2026-04-26 03:49 | 22.31109 | 113.91532 | 37 ft | 17 kts | 161° |
| 2026-04-26 03:49 | 22.30997 | 113.91574 | 37 ft | 17 kts | 161° |
| 2026-04-26 03:49 | 22.30891 | 113.91614 | 36 ft | 12 kts | 161° |
| 2026-04-26 03:50 | 22.30814 | 113.91643 | 37 ft | 7 kts | 161° |
| 2026-04-26 03:50 | 22.30801 | 113.91648 | 37 ft | 2 kts | 161° |
| 2026-04-26 03:50 | 22.30786 | 113.91658 | 36 ft | 2 kts | 128° |
| 2026-04-26 03:50 | 22.30787 | 113.91679 | 37 ft | 3 kts | 78° |
| 2026-04-26 03:51 | 22.30797 | 113.91710 | 34 ft | 5 kts | 70° |
| 2026-04-26 03:51 | 22.30810 | 113.91749 | 37 ft | 6 kts | 70° |
| 2026-04-26 03:51 | 22.30815 | 113.91765 | 37 ft | 0 kts | 70° |